Terminal Aerodrome Forecast
Issued by NWS

Home | Current Version | Previous Version | Text Only | Print | Product List | Glossary On
Versions: 1 2 3 4 5 6 7 8 9 10 11 12
395
FTUS46 KSTO 242332 AAA
TAFSMF
TAF AMD
KSMF 242332Z 2500/2524 16011KT P6SM SCT050 SCT080
     FM250600 16006KT P6SM SCT150=

USA.gov is the U.S. government's official web portal to all federal, state and local government web resources and services.